Spirit Lake, Iowa
Current Conditions -  °F | °C
As of 2:33 AM on Thursday 18 Dec 2014 (Local Time) from KMJQ Reporting Station
Scattered Clouds Scattered Clouds  
Wind Chill: 10°   Ceiling: Unl
Heat Index: 10°   Visibility: 10mi
Dew Point:   Wind: 0mph
Humidity: 79%   Direction: NA
Pressure: 30.27"   Gusts: NA
Location:  43.42°N, 95.1°W
Report Text: KMJQ 180833Z AUTO 00000KT 10SM SCT110 M12/M15 A3027 RMK AO2
Loading
Personal Weather Stations






























Interactive Weather Map New forecast layout! Learn more

10-Day Weather Forecast

Advertisements
Track Severe Weather on mobile